createdAt,value
2019-03-24T00:02:13.011Z,7.90
2019-03-24T00:04:41.463Z,7.80
2019-03-24T00:07:29.265Z,7.80
2019-03-24T00:09:57.684Z,7.70
2019-03-24T00:12:37.910Z,7.60
2019-03-24T00:15:08.060Z,7.50
2019-03-24T00:17:36.511Z,7.50
2019-03-24T00:20:06.832Z,7.40
2019-03-24T00:22:35.296Z,7.40
2019-03-24T00:25:23.056Z,7.30
2019-03-24T00:27:51.526Z,7.20
2019-03-24T00:30:20.082Z,7.10
2019-03-24T00:32:57.630Z,7.10
2019-03-24T00:35:45.370Z,7.00
2019-03-24T00:38:13.824Z,7.00
2019-03-24T00:40:42.254Z,7.00
2019-03-24T00:43:10.708Z,7.00
2019-03-24T00:45:39.219Z,6.90
2019-03-24T00:48:07.659Z,6.90
2019-03-24T00:50:36.077Z,6.80
2019-03-24T00:53:23.961Z,6.80
2019-03-24T00:56:11.769Z,6.70
2019-03-24T00:58:40.182Z,6.70
2019-03-24T01:01:28.044Z,6.60
2019-03-24T01:03:56.492Z,6.60
2019-03-24T01:06:24.939Z,6.60
2019-03-24T01:08:53.360Z,6.50
2019-03-24T01:11:41.151Z,6.50
2019-03-24T01:14:09.563Z,6.50
2019-03-24T01:16:57.345Z,6.40
2019-03-24T01:19:25.771Z,6.40
2019-03-24T01:22:13.555Z,6.40
2019-03-24T01:24:41.970Z,6.30
2019-03-24T01:27:29.796Z,6.30
2019-03-24T01:29:58.253Z,6.30
2019-03-24T01:32:46.034Z,6.20
2019-03-24T01:35:14.619Z,6.20
2019-03-24T01:37:43.075Z,6.10
2019-03-24T01:40:12.310Z,6.10
2019-03-24T01:42:41.057Z,6.10
2019-03-24T01:45:28.884Z,6.20
2019-03-24T01:48:09.208Z,6.10
2019-03-24T01:50:37.663Z,6.10
2019-03-24T01:53:25.426Z,6.10
2019-03-24T01:56:05.893Z,6.10
2019-03-24T01:58:34.307Z,6.10
2019-03-24T02:01:02.731Z,6.20
2019-03-24T02:03:31.198Z,6.20
2019-03-24T02:05:59.611Z,6.20
2019-03-24T02:08:28.028Z,6.20
2019-03-24T02:10:56.480Z,6.20
2019-03-24T02:13:27.947Z,6.20
2019-03-24T02:15:56.448Z,6.20
2019-03-24T02:18:24.863Z,6.20
2019-03-24T02:20:53.316Z,6.10
2019-03-24T02:23:21.736Z,6.10
2019-03-24T02:26:09.520Z,6.00
2019-03-24T02:28:57.279Z,5.90
2019-03-24T02:31:25.732Z,5.90
2019-03-24T02:33:54.144Z,5.80
2019-03-24T02:36:22.612Z,5.80
2019-03-24T02:38:51.084Z,5.70
2019-03-24T02:41:19.507Z,5.70
2019-03-24T02:43:47.965Z,5.60
2019-03-24T02:46:24.219Z,5.60
2019-03-24T02:48:46.685Z,5.60
2019-03-24T02:51:15.131Z,5.50
2019-03-24T02:53:43.562Z,5.50
2019-03-24T02:56:12.058Z,5.40
2019-03-24T02:58:40.513Z,5.40
2019-03-24T03:01:28.268Z,5.40
2019-03-24T03:03:56.705Z,5.40
2019-03-24T03:06:44.471Z,5.30
2019-03-24T03:09:12.984Z,5.30
2019-03-24T03:11:41.402Z,5.20
2019-03-24T03:14:09.860Z,5.20
2019-03-24T03:16:39.386Z,5.20
2019-03-24T03:19:08.065Z,5.10
2019-03-24T03:21:55.861Z,5.10
2019-03-24T03:24:24.367Z,5.10
2019-03-24T03:26:52.804Z,5.10
2019-03-24T03:29:21.257Z,5.00
2019-03-24T03:31:49.681Z,5.00
2019-03-24T03:34:37.543Z,5.00
2019-03-24T03:37:06.128Z,5.00
2019-03-24T03:39:37.162Z,5.00
2019-03-24T03:42:05.750Z,4.90
2019-03-24T03:44:34.236Z,4.90
2019-03-24T03:47:02.670Z,4.90
2019-03-24T03:49:31.191Z,4.90
2019-03-24T03:51:59.651Z,4.90
2019-03-24T03:54:47.494Z,4.90
2019-03-24T03:57:15.934Z,4.80
2019-03-24T03:59:44.357Z,4.80
2019-03-24T04:02:32.220Z,4.80
2019-03-24T04:05:00.649Z,4.80
2019-03-24T04:07:29.075Z,4.70
2019-03-24T04:09:57.507Z,4.70
2019-03-24T04:12:26.134Z,4.70
2019-03-24T04:14:54.552Z,4.70
2019-03-24T04:17:22.973Z,4.60
2019-03-24T04:20:10.831Z,4.60
2019-03-24T04:22:39.322Z,4.50
2019-03-24T04:25:07.875Z,4.50
2019-03-24T04:27:55.661Z,4.50
2019-03-24T04:30:24.178Z,4.50
2019-03-24T04:32:52.681Z,4.40
2019-03-24T04:35:21.206Z,4.40
2019-03-24T04:37:49.664Z,4.40
2019-03-24T04:40:37.450Z,4.40
2019-03-24T04:43:05.871Z,4.40
2019-03-24T04:45:34.331Z,4.40
2019-03-24T04:48:22.112Z,4.30
2019-03-24T04:51:09.899Z,4.30
2019-03-24T04:53:38.333Z,4.20
2019-03-24T04:56:06.967Z,4.20
2019-03-24T04:58:35.383Z,4.20
2019-03-24T05:01:03.867Z,4.10
2019-03-24T05:03:32.329Z,4.10
2019-03-24T05:06:00.883Z,4.10
2019-03-24T05:08:49.540Z,4.10
2019-03-24T05:14:20.125Z,4.00
2019-03-24T05:16:48.548Z,4.00
2019-03-24T05:19:36.343Z,4.00
2019-03-24T05:22:04.814Z,4.00
2019-03-24T05:24:33.228Z,4.00
2019-03-24T05:27:02.150Z,4.00
2019-03-24T05:29:30.600Z,3.90
2019-03-24T05:32:18.390Z,3.90
2019-03-24T05:34:46.911Z,3.90
2019-03-24T05:37:15.402Z,4.00
2019-03-24T05:39:43.828Z,3.90
2019-03-24T05:42:31.607Z,3.90
2019-03-24T05:45:00.057Z,3.90
2019-03-24T05:47:36.797Z,3.90
2019-03-24T05:49:58.691Z,3.90
2019-03-24T05:52:27.729Z,3.90
2019-03-24T05:54:56.356Z,3.90
2019-03-24T05:57:24.775Z,3.90
2019-03-24T06:00:12.942Z,4.00
2019-03-24T06:02:53.629Z,4.00
2019-03-24T06:05:34.175Z,4.00
2019-03-24T06:08:02.597Z,4.00
2019-03-24T06:10:31.054Z,4.00
2019-03-24T06:13:18.852Z,4.00
2019-03-24T06:15:47.276Z,4.10
2019-03-24T06:18:15.716Z,4.10
2019-03-24T06:20:44.163Z,4.20
2019-03-24T06:23:12.587Z,4.20
2019-03-24T06:25:41.101Z,4.30
2019-03-24T06:28:22.048Z,4.30
2019-03-24T06:30:50.510Z,4.40
2019-03-24T06:33:18.990Z,4.40
2019-03-24T06:35:47.497Z,4.50
2019-03-24T06:38:15.912Z,4.50
2019-03-24T06:40:44.363Z,4.60
2019-03-24T06:43:12.792Z,4.60
2019-03-24T06:45:41.252Z,4.70
2019-03-24T06:48:29.096Z,4.70
2019-03-24T06:50:57.581Z,4.80
2019-03-24T06:53:26.044Z,4.80
2019-03-24T06:55:54.491Z,4.80
2019-03-24T06:58:42.290Z,4.80
2019-03-24T07:01:10.815Z,4.80
2019-03-24T07:03:39.259Z,4.90
2019-03-24T07:06:07.751Z,4.90
2019-03-24T07:08:36.200Z,4.90
2019-03-24T07:11:11.417Z,5.00
2019-03-24T07:13:54.195Z,5.10
2019-03-24T07:16:22.625Z,5.10
2019-03-24T07:19:11.254Z,5.20
2019-03-24T07:21:39.683Z,5.20
2019-03-24T07:24:08.124Z,5.30
2019-03-24T07:26:36.550Z,5.30
2019-03-24T07:29:05.055Z,5.30
2019-03-24T07:31:33.508Z,5.40
2019-03-24T07:34:02.304Z,5.50
2019-03-24T07:36:30.758Z,5.50
2019-03-24T07:38:59.182Z,5.50
2019-03-24T07:41:27.673Z,5.50
2019-03-24T07:43:56.330Z,5.50
2019-03-24T07:46:24.839Z,5.50
2019-03-24T07:48:53.323Z,5.50
2019-03-24T07:51:21.770Z,5.50
2019-03-24T07:53:50.351Z,5.60
2019-03-24T07:56:18.767Z,5.70
2019-03-24T07:58:47.219Z,5.80
2019-03-24T08:01:35.045Z,5.90
2019-03-24T08:04:07.013Z,6.00
2019-03-24T08:06:35.487Z,6.10
2019-03-24T08:09:23.350Z,6.20
2019-03-24T08:11:53.545Z,6.30
2019-03-24T08:14:22.079Z,6.30
2019-03-24T08:16:50.570Z,6.40
2019-03-24T08:19:18.987Z,6.50
2019-03-24T08:21:47.422Z,6.50
2019-03-24T08:24:16.005Z,6.50
2019-03-24T08:26:44.447Z,6.50
2019-03-24T08:29:13.086Z,6.60
2019-03-24T08:31:41.976Z,6.60
2019-03-24T08:34:10.523Z,6.70
2019-03-24T08:36:58.547Z,6.80
2019-03-24T08:39:27.149Z,6.90
2019-03-24T08:41:55.612Z,6.90
2019-03-24T08:44:43.403Z,7.00
2019-03-24T08:47:11.847Z,7.20
2019-03-24T08:49:40.263Z,7.30
2019-03-24T08:52:08.720Z,7.40
2019-03-24T08:54:37.211Z,7.50
2019-03-24T08:57:05.737Z,7.60
2019-03-24T08:59:34.232Z,7.70
2019-03-24T09:02:02.656Z,7.80
2019-03-24T09:04:31.103Z,7.80
2019-03-24T09:06:59.531Z,7.90
2019-03-24T09:09:27.984Z,8.00
2019-03-24T09:11:56.464Z,8.20
2019-03-24T09:14:24.902Z,8.40
2019-03-24T09:16:53.377Z,8.50
2019-03-24T09:19:21.812Z,8.60
2019-03-24T09:21:50.352Z,8.70
2019-03-24T09:24:18.816Z,8.80
2019-03-24T09:26:47.260Z,9.00
2019-03-24T09:29:15.675Z,9.10
2019-03-24T09:31:44.121Z,9.30
2019-03-24T09:34:31.897Z,9.40
2019-03-24T09:37:00.334Z,9.50
2019-03-24T09:39:28.760Z,9.70
2019-03-24T09:41:57.218Z,9.80
2019-03-24T09:44:25.691Z,9.90
2019-03-24T09:46:54.246Z,10.10
2019-03-24T09:49:22.667Z,10.50
2019-03-24T09:51:51.121Z,10.80
2019-03-24T09:54:19.556Z,11.20
2019-03-24T09:56:48.019Z,11.50
2019-03-24T09:59:16.534Z,11.70
2019-03-24T10:01:44.977Z,11.90
2019-03-24T10:04:32.801Z,11.90
2019-03-24T10:07:01.292Z,11.90
2019-03-24T10:09:29.737Z,11.90
2019-03-24T10:11:58.257Z,11.90
2019-03-24T10:14:26.747Z,11.90
2019-03-24T10:16:55.786Z,12.10
2019-03-24T10:19:24.425Z,12.20
2019-03-24T10:21:52.854Z,12.40
2019-03-24T10:24:40.639Z,12.60
2019-03-24T10:27:09.104Z,12.70
2019-03-24T10:29:56.926Z,12.60
2019-03-24T10:32:25.371Z,12.60
2019-03-24T10:34:54.139Z,12.50
2019-03-24T10:37:43.760Z,12.60
2019-03-24T10:40:15.564Z,12.60
2019-03-24T10:42:45.912Z,12.70
2019-03-24T10:45:16.173Z,12.70
2019-03-24T10:48:08.077Z,12.70
2019-03-24T10:50:37.044Z,12.50
2019-03-24T10:53:06.181Z,12.30
2019-03-24T10:55:36.857Z,12.00
2019-03-24T10:58:24.800Z,12.00
2019-03-24T11:00:53.226Z,11.90
2019-03-24T11:03:21.656Z,11.80
2019-03-24T11:05:50.142Z,11.70
2019-03-24T11:08:18.678Z,11.60
2019-03-24T11:11:06.457Z,11.50
2019-03-24T11:13:34.911Z,11.50
2019-03-24T11:16:03.433Z,11.40
2019-03-24T11:18:31.903Z,11.20
2019-03-24T11:21:00.387Z,11.10
2019-03-24T11:23:28.855Z,11.00
2019-03-24T11:25:57.340Z,11.00
2019-03-24T11:28:25.755Z,11.00
2019-03-24T11:31:13.551Z,11.00
2019-03-24T11:33:41.995Z,10.90
2019-03-24T11:36:10.447Z,11.00
2019-03-24T11:38:59.198Z,11.00
2019-03-24T11:41:27.855Z,11.10
2019-03-24T11:43:56.290Z,11.20
2019-03-24T11:46:24.744Z,11.30
2019-03-24T11:48:53.179Z,11.40
2019-03-24T11:51:21.624Z,11.50
2019-03-24T11:53:50.060Z,11.60
2019-03-24T11:56:18.484Z,11.50
2019-03-24T11:58:47.039Z,11.40
2019-03-24T12:01:15.873Z,11.40
2019-03-24T12:03:45.936Z,11.50
2019-03-24T12:06:15.114Z,11.50
2019-03-24T12:08:44.187Z,11.60
2019-03-24T12:11:12.696Z,11.70
2019-03-24T12:13:41.476Z,11.80
2019-03-24T12:16:10.078Z,11.90
2019-03-24T12:18:38.682Z,12.20
2019-03-24T12:21:07.346Z,12.40
2019-03-24T12:23:38.279Z,12.80
2019-03-24T12:26:07.052Z,13.00
2019-03-24T12:28:54.951Z,13.20
2019-03-24T12:31:23.649Z,13.50
2019-03-24T12:33:52.397Z,13.80
2019-03-24T12:36:40.241Z,14.30
2019-03-24T12:39:08.709Z,14.70
2019-03-24T12:41:37.137Z,15.40
2019-03-24T12:44:05.553Z,15.80
2019-03-24T12:46:53.463Z,16.20
2019-03-24T12:49:21.983Z,16.60
2019-03-24T12:51:50.639Z,17.00
2019-03-24T12:54:19.288Z,17.30
2019-03-24T12:56:47.906Z,17.10
2019-03-24T12:59:16.675Z,17.20
2019-03-24T13:01:45.163Z,17.50
2019-03-24T13:04:13.652Z,17.60
2019-03-24T13:06:42.211Z,17.70
2019-03-24T13:09:10.907Z,17.90
2019-03-24T13:11:39.403Z,18.00
2019-03-24T13:14:07.978Z,18.10
2019-03-24T13:16:36.782Z,18.00
2019-03-24T13:19:05.811Z,18.00
2019-03-24T13:21:35.683Z,18.20
2019-03-24T13:24:09.087Z,18.40
2019-03-24T13:26:37.875Z,18.70
2019-03-24T13:29:06.361Z,18.90
2019-03-24T13:31:34.805Z,18.90
2019-03-24T13:34:22.610Z,18.70
2019-03-24T13:36:51.031Z,18.40
2019-03-24T13:39:19.468Z,18.50
2019-03-24T13:41:47.916Z,18.70
2019-03-24T13:44:19.447Z,18.80
2019-03-24T13:46:48.566Z,19.30
2019-03-24T13:49:18.089Z,19.70
2019-03-24T13:51:47.026Z,19.90
2019-03-24T13:54:23.338Z,20.50
2019-03-24T13:56:51.932Z,21.10
2019-03-24T13:59:39.748Z,22.40
2019-03-24T14:02:09.068Z,24.70
2019-03-24T14:04:37.563Z,27.80
2019-03-24T14:07:06.092Z,30.10
2019-03-24T14:09:34.729Z,31.70
2019-03-24T14:12:03.458Z,32.90
2019-03-24T14:14:31.951Z,34.00
2019-03-24T14:17:00.509Z,34.80
2019-03-24T14:19:29.120Z,35.40
2019-03-24T14:21:58.705Z,35.50
2019-03-24T14:24:27.284Z,35.30
2019-03-24T14:26:55.843Z,35.20
2019-03-24T14:29:27.030Z,35.20
2019-03-24T14:31:54.748Z,35.50
2019-03-24T14:34:23.569Z,35.30
2019-03-24T14:36:52.718Z,34.90
2019-03-24T14:39:21.483Z,35.00
2019-03-24T14:41:50.222Z,35.50
2019-03-24T14:44:22.320Z,35.90
2019-03-24T14:46:51.195Z,35.90
2019-03-24T14:49:19.759Z,35.30
2019-03-24T14:51:48.748Z,35.20
2019-03-24T14:54:17.312Z,35.10
2019-03-24T14:56:45.847Z,35.20
2019-03-24T14:59:20.210Z,35.50
2019-03-24T15:01:48.651Z,35.70
2019-03-24T15:04:17.103Z,35.90
2019-03-24T15:06:45.551Z,35.90
2019-03-24T15:09:33.367Z,35.90
2019-03-24T15:12:01.796Z,35.60
2019-03-24T15:14:30.216Z,35.30
2019-03-24T15:16:58.666Z,35.40
2019-03-24T15:19:46.461Z,35.20
2019-03-24T15:22:14.915Z,34.90
2019-03-24T15:24:43.413Z,34.80
2019-03-24T15:27:11.837Z,34.70
2019-03-24T15:29:40.298Z,34.40
2019-03-24T15:32:08.720Z,33.60
2019-03-24T15:34:37.189Z,33.20
2019-03-24T15:37:05.612Z,33.30
2019-03-24T15:39:53.406Z,33.70
2019-03-24T15:42:21.822Z,33.70
2019-03-24T15:45:10.279Z,33.40
2019-03-24T15:47:38.714Z,33.00
2019-03-24T15:50:26.499Z,33.10
2019-03-24T15:52:54.956Z,33.00
2019-03-24T15:55:23.412Z,33.10
2019-03-24T15:57:51.860Z,33.30
2019-03-24T16:00:40.751Z,33.40
2019-03-24T16:03:09.211Z,33.20
2019-03-24T16:05:37.677Z,33.10
2019-03-24T16:08:25.543Z,32.80
2019-03-24T16:11:13.335Z,32.60
2019-03-24T16:13:41.762Z,32.40
2019-03-24T16:16:29.558Z,32.00
2019-03-24T16:18:58.020Z,32.00
2019-03-24T16:21:28.034Z,32.10
2019-03-24T16:23:56.616Z,32.10
2019-03-24T16:26:25.065Z,31.90
2019-03-24T16:29:12.891Z,31.80
2019-03-24T16:31:41.348Z,31.60
2019-03-24T16:34:09.783Z,31.20
2019-03-24T16:36:57.576Z,30.60
2019-03-24T16:39:26.027Z,29.80
2019-03-24T16:41:54.516Z,29.40
2019-03-24T16:44:23.032Z,28.90
2019-03-24T16:46:51.464Z,28.20
2019-03-24T16:49:19.918Z,27.40
2019-03-24T16:51:48.344Z,26.90
2019-03-24T16:54:36.152Z,26.70
2019-03-24T16:57:04.613Z,26.60
2019-03-24T16:59:33.041Z,26.80
2019-03-24T17:02:09.677Z,26.80
2019-03-24T17:04:43.813Z,26.70
2019-03-24T17:07:12.236Z,26.20
2019-03-24T17:09:40.701Z,25.50
2019-03-24T17:12:09.255Z,24.90
2019-03-24T17:14:37.806Z,24.00
2019-03-24T17:17:06.317Z,22.30
2019-03-24T17:19:34.778Z,20.80
2019-03-24T17:22:03.222Z,19.70
2019-03-24T17:24:31.650Z,18.90
2019-03-24T17:27:00.104Z,18.20
2019-03-24T17:29:28.567Z,17.70
2019-03-24T17:31:57.015Z,17.30
2019-03-24T17:34:25.459Z,16.90
2019-03-24T17:36:53.916Z,16.50
2019-03-24T17:39:22.348Z,16.20
2019-03-24T17:41:50.819Z,16.00
2019-03-24T17:44:19.367Z,15.80
2019-03-24T17:46:47.816Z,15.50
2019-03-24T17:49:16.252Z,15.30
2019-03-24T17:51:44.703Z,15.10
2019-03-24T17:54:32.469Z,15.00
2019-03-24T17:57:00.920Z,14.80
2019-03-24T17:59:29.344Z,14.50
2019-03-24T18:01:57.885Z,14.30
2019-03-24T18:07:15.102Z,14.00
2019-03-24T18:09:43.535Z,13.80
2019-03-24T18:12:11.964Z,13.70
2019-03-24T18:14:40.388Z,13.60
2019-03-24T18:17:15.938Z,13.50
2019-03-24T18:19:44.389Z,13.40
2019-03-24T18:22:13.023Z,13.40
2019-03-24T18:24:43.188Z,13.30
2019-03-24T18:27:11.671Z,13.20
2019-03-24T18:29:40.095Z,13.10
2019-03-24T18:32:08.508Z,13.00
2019-03-24T18:34:36.954Z,12.80
2019-03-24T18:37:05.393Z,12.70
2019-03-24T18:39:33.892Z,12.60
2019-03-24T18:42:02.420Z,12.40
2019-03-24T18:44:30.869Z,12.20
2019-03-24T18:46:59.323Z,12.00
2019-03-24T18:49:27.756Z,11.90
2019-03-24T18:51:56.212Z,11.70
2019-03-24T18:54:24.642Z,11.60
2019-03-24T18:56:53.069Z,11.60
2019-03-24T18:59:21.523Z,11.60
2019-03-24T19:01:49.950Z,11.50
2019-03-24T19:04:18.571Z,11.40
2019-03-24T19:06:46.994Z,11.30
2019-03-24T19:09:15.453Z,11.20
2019-03-24T19:11:43.888Z,11.10
2019-03-24T19:14:31.674Z,11.00
2019-03-24T19:17:00.091Z,10.90
2019-03-24T19:19:28.539Z,10.80
2019-03-24T19:21:56.955Z,10.70
2019-03-24T19:24:25.436Z,10.60
2019-03-24T19:26:58.066Z,10.60
2019-03-24T19:29:26.570Z,10.50
2019-03-24T19:31:55.018Z,10.50
2019-03-24T19:34:24.446Z,10.40
2019-03-24T19:36:52.986Z,10.40
2019-03-24T19:39:21.479Z,10.30
2019-03-24T19:41:49.960Z,10.20
2019-03-24T19:44:18.557Z,10.10
2019-03-24T19:46:47.057Z,10.10
2019-03-24T19:49:15.511Z,10.00
2019-03-24T19:51:43.958Z,10.00
2019-03-24T19:54:12.435Z,10.00
2019-03-24T19:56:40.908Z,9.90
2019-03-24T19:59:09.357Z,9.80
2019-03-24T20:01:37.786Z,9.80
2019-03-24T20:04:06.311Z,9.70
2019-03-24T20:06:54.215Z,9.70
2019-03-24T20:09:22.745Z,9.70
2019-03-24T20:11:51.266Z,9.70
2019-03-24T20:14:19.817Z,9.60
2019-03-24T20:16:48.376Z,9.50
2019-03-24T20:19:16.799Z,9.50
2019-03-24T20:21:45.467Z,9.50
2019-03-24T20:24:14.971Z,9.40
2019-03-24T20:26:43.433Z,9.40
2019-03-24T20:29:11.857Z,9.30
2019-03-24T20:31:40.379Z,9.30
2019-03-24T20:34:08.919Z,9.20
2019-03-24T20:36:37.488Z,9.20
2019-03-24T20:39:08.574Z,9.10
2019-03-24T20:41:37.023Z,9.00
2019-03-24T20:44:05.794Z,9.00
2019-03-24T20:46:34.259Z,8.90
2019-03-24T20:49:02.703Z,8.90
2019-03-24T20:51:31.151Z,8.90
2019-03-24T20:53:59.604Z,8.80
2019-03-24T20:56:28.052Z,8.80
2019-03-24T20:58:56.504Z,8.80
2019-03-24T21:01:24.941Z,8.80
2019-03-24T21:03:53.387Z,8.80
2019-03-24T21:06:21.833Z,8.80
2019-03-24T21:08:50.279Z,8.70
2019-03-24T21:11:18.731Z,8.70
2019-03-24T21:13:47.151Z,8.70
2019-03-24T21:16:15.599Z,8.60
2019-03-24T21:18:44.014Z,8.50
2019-03-24T21:21:12.467Z,8.50
2019-03-24T21:23:40.921Z,8.40
2019-03-24T21:26:11.217Z,8.40
2019-03-24T21:28:39.475Z,8.40
2019-03-24T21:31:07.923Z,8.40
2019-03-24T21:33:36.688Z,8.30
2019-03-24T21:36:05.222Z,8.30
2019-03-24T21:38:33.679Z,8.30
2019-03-24T21:41:02.165Z,8.30
2019-03-24T21:43:30.737Z,8.20
2019-03-24T21:45:59.176Z,8.20
2019-03-24T21:48:27.619Z,8.20
2019-03-24T21:50:56.062Z,8.10
2019-03-24T21:53:24.515Z,8.00
2019-03-24T21:55:52.968Z,8.00
2019-03-24T21:58:40.735Z,7.90
2019-03-24T22:01:21.797Z,7.80
2019-03-24T22:03:50.206Z,7.80
2019-03-24T22:06:18.666Z,7.70
2019-03-24T22:08:47.087Z,7.70
2019-03-24T22:11:15.503Z,7.70
2019-03-24T22:13:43.955Z,7.70
2019-03-24T22:16:12.476Z,7.70
2019-03-24T22:18:40.934Z,7.60
2019-03-24T22:21:09.430Z,7.50
2019-03-24T22:23:37.939Z,7.50
2019-03-24T22:26:06.459Z,7.50
2019-03-24T22:28:34.880Z,7.40
2019-03-24T22:31:03.332Z,7.40
2019-03-24T22:33:31.845Z,7.30
2019-03-24T22:36:00.260Z,7.20
2019-03-24T22:38:28.721Z,7.20
2019-03-24T22:40:57.143Z,7.20
2019-03-24T22:43:25.556Z,7.10
2019-03-24T22:45:54.005Z,7.10
2019-03-24T22:48:22.430Z,7.00
2019-03-24T22:50:50.852Z,7.00
2019-03-24T22:53:19.308Z,7.00
2019-03-24T22:55:47.840Z,7.00
2019-03-24T22:58:16.295Z,6.90
2019-03-24T23:00:46.436Z,6.90
2019-03-24T23:03:14.915Z,6.90
2019-03-24T23:05:43.360Z,6.90
2019-03-24T23:08:11.820Z,6.80
2019-03-24T23:10:40.238Z,6.80
2019-03-24T23:13:08.895Z,6.80
2019-03-24T23:15:37.451Z,6.80
2019-03-24T23:18:05.879Z,6.90
2019-03-24T23:20:34.326Z,7.00
2019-03-24T23:23:02.753Z,7.10
2019-03-24T23:25:31.204Z,7.10
2019-03-24T23:27:59.662Z,7.20
2019-03-24T23:30:28.158Z,7.20
2019-03-24T23:32:56.615Z,7.20
2019-03-24T23:35:25.043Z,7.20
2019-03-24T23:37:53.457Z,7.10
2019-03-24T23:40:21.915Z,7.00
2019-03-24T23:42:50.403Z,6.90
2019-03-24T23:45:18.839Z,6.80
2019-03-24T23:47:47.307Z,6.70
2019-03-24T23:50:15.787Z,6.60
2019-03-24T23:52:44.243Z,6.60
2019-03-24T23:55:12.799Z,6.60
2019-03-24T23:57:41.243Z,6.50
